createdAt,value
2019-02-24T00:01:03.453Z,89.80
2019-02-24T00:05:09.161Z,90.00
2019-02-24T00:09:14.227Z,90.00
2019-02-24T00:13:19.383Z,90.00
2019-02-24T00:17:24.399Z,90.10
2019-02-24T00:21:30.391Z,89.10
2019-02-24T00:25:35.400Z,88.10
2019-02-24T00:29:40.419Z,87.00
2019-02-24T00:33:45.415Z,86.10
2019-02-24T00:37:50.427Z,86.80
2019-02-24T00:41:55.444Z,88.10
2019-02-24T00:46:00.459Z,88.20
2019-02-24T00:50:08.922Z,88.70
2019-02-24T00:54:14.034Z,87.80
2019-02-24T00:58:19.044Z,87.40
2019-02-24T01:02:24.055Z,88.60
2019-02-24T01:06:29.063Z,88.80
2019-02-24T01:10:34.084Z,88.90
2019-02-24T01:14:39.096Z,88.40
2019-02-24T01:18:44.091Z,89.20
2019-02-24T01:22:49.116Z,90.30
2019-02-24T01:26:54.189Z,89.80
2019-02-24T01:31:00.274Z,89.30
2019-02-24T01:35:06.934Z,90.10
2019-02-24T01:39:12.898Z,90.20
2019-02-24T01:43:17.955Z,89.80
2019-02-24T01:47:22.965Z,90.10
2019-02-24T01:51:28.040Z,90.10
2019-02-24T01:55:33.051Z,89.10
2019-02-24T01:59:38.159Z,90.30
2019-02-24T02:03:43.159Z,90.70
2019-02-24T02:07:48.175Z,90.90
2019-02-24T02:11:53.187Z,90.30
2019-02-24T02:15:58.202Z,90.20
2019-02-24T02:20:03.588Z,90.70
2019-02-24T02:24:08.687Z,90.30
2019-02-24T02:28:13.701Z,90.00
2019-02-24T02:32:18.728Z,89.50
2019-02-24T02:36:23.735Z,90.80
2019-02-24T02:40:28.791Z,91.10
2019-02-24T02:44:33.784Z,91.70
2019-02-24T02:48:38.802Z,92.20
2019-02-24T02:52:43.815Z,92.20
2019-02-24T02:56:48.885Z,92.50
2019-02-24T03:00:53.892Z,92.50
2019-02-24T03:04:58.904Z,91.60
2019-02-24T03:09:05.627Z,91.80
2019-02-24T03:13:12.260Z,91.50
2019-02-24T03:17:17.271Z,91.80
2019-02-24T03:21:22.285Z,90.80
2019-02-24T03:25:27.298Z,90.70
2019-02-24T03:29:32.293Z,90.40
2019-02-24T03:33:37.314Z,90.50
2019-02-24T03:37:42.353Z,90.70
2019-02-24T03:41:47.402Z,91.60
2019-02-24T03:45:52.377Z,91.30
2019-02-24T03:49:57.371Z,91.30
2019-02-24T03:54:02.383Z,91.40
2019-02-24T03:58:07.464Z,91.60
2019-02-24T04:02:12.557Z,91.50
2019-02-24T04:06:17.595Z,91.30
2019-02-24T04:10:22.609Z,91.10
2019-02-24T04:14:27.621Z,90.70
2019-02-24T04:18:32.636Z,90.90
2019-02-24T04:22:37.672Z,90.50
2019-02-24T04:26:42.683Z,90.10
2019-02-24T04:30:47.696Z,90.00
2019-02-24T04:34:52.704Z,90.30
2019-02-24T04:38:57.715Z,89.90
2019-02-24T04:43:02.733Z,88.70
2019-02-24T04:47:07.740Z,88.50
2019-02-24T04:51:12.756Z,90.00
2019-02-24T04:55:17.747Z,90.30
2019-02-24T04:59:22.881Z,90.10
2019-02-24T05:03:27.895Z,90.70
2019-02-24T05:07:32.912Z,91.20
2019-02-24T05:11:37.921Z,91.60
2019-02-24T05:15:43.405Z,92.20
2019-02-24T05:19:48.408Z,92.10
2019-02-24T05:23:53.424Z,91.80
2019-02-24T05:27:58.473Z,91.30
2019-02-24T05:32:03.574Z,90.60
2019-02-24T05:36:08.552Z,90.60
2019-02-24T05:40:13.667Z,90.70
2019-02-24T05:44:18.685Z,90.60
2019-02-24T05:48:23.697Z,89.40
2019-02-24T05:52:28.767Z,89.60
2019-02-24T05:56:33.776Z,90.20
2019-02-24T06:00:38.768Z,90.40
2019-02-24T06:04:43.796Z,90.00
2019-02-24T06:08:49.025Z,89.00
2019-02-24T06:12:53.984Z,88.40
2019-02-24T06:16:59.522Z,89.50
2019-02-24T06:21:04.640Z,88.50
2019-02-24T06:25:09.666Z,88.70
2019-02-24T06:29:14.983Z,88.90
2019-02-24T06:33:19.996Z,88.60
2019-02-24T06:37:25.007Z,88.40
2019-02-24T06:41:30.008Z,88.30
2019-02-24T06:45:35.095Z,89.30
2019-02-24T06:49:40.106Z,88.20
2019-02-24T06:53:46.206Z,85.80
2019-02-24T06:57:51.332Z,84.40
2019-02-24T07:01:56.314Z,81.40
2019-02-24T07:06:01.387Z,79.70
2019-02-24T07:10:07.539Z,76.70
2019-02-24T07:14:12.624Z,72.20
2019-02-24T07:18:17.700Z,70.10
2019-02-24T07:22:22.729Z,68.80
2019-02-24T07:26:28.070Z,69.00
2019-02-24T07:30:33.071Z,67.10
2019-02-24T07:34:38.208Z,65.60
2019-02-24T07:38:43.207Z,64.10
2019-02-24T07:42:48.214Z,64.60
2019-02-24T07:46:54.794Z,62.70
2019-02-24T07:50:59.810Z,63.80
2019-02-24T07:55:05.955Z,62.60
2019-02-24T07:59:10.956Z,61.60
2019-02-24T08:03:16.032Z,64.60
2019-02-24T08:07:21.015Z,66.40
2019-02-24T08:11:26.017Z,67.00
2019-02-24T08:15:31.077Z,62.60
2019-02-24T08:19:36.079Z,63.30
2019-02-24T08:23:41.158Z,62.40
2019-02-24T08:27:46.180Z,61.00
2019-02-24T08:31:51.230Z,61.20
2019-02-24T08:35:56.307Z,61.20
2019-02-24T08:40:01.308Z,59.40
2019-02-24T08:44:06.375Z,57.70
2019-02-24T08:48:11.418Z,57.00
2019-02-24T08:52:16.583Z,56.60
2019-02-24T08:56:22.359Z,55.70
2019-02-24T09:00:27.393Z,55.00
2019-02-24T09:04:32.404Z,54.00
2019-02-24T09:08:37.409Z,53.70
2019-02-24T09:12:42.379Z,52.60
2019-02-24T09:16:47.394Z,52.20
2019-02-24T09:20:52.405Z,51.60
2019-02-24T09:24:57.404Z,50.50
2019-02-24T09:29:02.472Z,50.40
2019-02-24T09:33:13.097Z,49.60
2019-02-24T09:37:18.715Z,49.10
2019-02-24T09:41:23.720Z,48.50
2019-02-24T09:45:28.742Z,47.00
2019-02-24T09:49:36.140Z,46.90
2019-02-24T09:53:41.537Z,46.00
2019-02-24T09:57:46.796Z,45.50
2019-02-24T10:01:52.246Z,44.60
2019-02-24T10:05:57.541Z,42.90
2019-02-24T10:10:02.826Z,41.40
2019-02-24T10:14:09.331Z,40.00
2019-02-24T10:18:14.824Z,40.20
2019-02-24T10:22:21.261Z,34.60
2019-02-24T10:26:27.472Z,26.50
2019-02-24T10:30:32.966Z,23.30
2019-02-24T10:34:38.280Z,22.10
2019-02-24T10:38:44.409Z,20.60
2019-02-24T10:42:51.479Z,20.00
2019-02-24T10:46:56.812Z,20.10
2019-02-24T10:51:02.239Z,18.50
2019-02-24T10:55:07.672Z,20.50
2019-02-24T10:59:12.969Z,19.70
2019-02-24T11:03:18.423Z,20.50
2019-02-24T11:07:23.701Z,20.70
2019-02-24T11:11:29.017Z,20.50
2019-02-24T11:15:35.789Z,22.20
2019-02-24T11:19:41.253Z,21.10
2019-02-24T11:23:46.535Z,20.40
2019-02-24T11:27:52.060Z,21.20
2019-02-24T11:31:57.998Z,22.00
2019-02-24T11:36:03.438Z,20.90
2019-02-24T11:40:16.429Z,21.00
2019-02-24T11:44:21.711Z,17.40
2019-02-24T11:48:26.972Z,16.20
2019-02-24T11:52:32.260Z,15.20
2019-02-24T11:56:37.546Z,15.20
2019-02-24T12:00:42.823Z,13.30
2019-02-24T12:04:48.117Z,13.70
2019-02-24T12:08:53.380Z,12.20
2019-02-24T12:12:59.284Z,12.80
2019-02-24T12:17:06.154Z,12.90
2019-02-24T12:21:11.636Z,13.50
2019-02-24T12:25:16.940Z,14.00
2019-02-24T12:29:22.219Z,13.90
2019-02-24T12:33:27.502Z,13.70
2019-02-24T12:37:32.789Z,13.00
2019-02-24T12:41:38.089Z,13.70
2019-02-24T12:45:43.399Z,12.20
2019-02-24T12:49:49.975Z,15.60
2019-02-24T12:53:55.348Z,16.50
2019-02-24T12:58:00.635Z,15.50
2019-02-24T13:02:06.266Z,16.30
2019-02-24T13:06:11.626Z,16.60
2019-02-24T13:10:17.639Z,15.20
2019-02-24T13:14:22.898Z,15.20
2019-02-24T13:18:28.192Z,15.30
2019-02-24T13:22:33.608Z,17.30
2019-02-24T13:26:38.977Z,21.50
2019-02-24T13:30:44.966Z,23.20
2019-02-24T13:34:50.339Z,24.90
2019-02-24T13:38:55.716Z,26.80
2019-02-24T13:43:02.087Z,28.00
2019-02-24T13:47:07.387Z,28.10
2019-02-24T13:51:12.689Z,27.80
2019-02-24T13:55:17.980Z,27.70
2019-02-24T13:59:23.239Z,27.00
2019-02-24T14:03:28.540Z,28.10
2019-02-24T14:07:33.840Z,27.20
2019-02-24T14:11:39.144Z,26.60
2019-02-24T14:15:46.344Z,25.40
2019-02-24T14:19:51.573Z,25.20
2019-02-24T14:23:57.926Z,24.60
2019-02-24T14:28:03.322Z,23.30
2019-02-24T14:32:08.599Z,24.30
2019-02-24T14:36:13.871Z,24.20
2019-02-24T14:40:20.126Z,21.30
2019-02-24T14:44:25.423Z,22.80
2019-02-24T14:48:30.704Z,22.90
2019-02-24T14:52:36.016Z,23.80
2019-02-24T14:56:41.300Z,23.60
2019-02-24T15:00:46.743Z,23.20
2019-02-24T15:04:52.080Z,23.20
2019-02-24T15:08:57.344Z,21.60
2019-02-24T15:13:02.625Z,21.60
2019-02-24T15:17:07.912Z,22.90
2019-02-24T15:21:13.200Z,23.60
2019-02-24T15:25:18.943Z,23.70
2019-02-24T15:29:24.204Z,24.10
2019-02-24T15:33:29.485Z,23.30
2019-02-24T15:37:34.815Z,23.50
2019-02-24T15:41:40.091Z,24.20
2019-02-24T15:45:45.347Z,24.50
2019-02-24T15:49:50.625Z,24.50
2019-02-24T15:53:55.922Z,23.00
2019-02-24T15:58:01.196Z,23.20
2019-02-24T16:02:06.516Z,22.30
2019-02-24T16:06:11.784Z,23.30
2019-02-24T16:10:19.375Z,23.80
2019-02-24T16:14:24.653Z,23.20
2019-02-24T16:18:29.928Z,23.80
2019-02-24T16:22:35.257Z,23.90
2019-02-24T16:26:40.532Z,26.40
2019-02-24T16:30:45.506Z,28.00
2019-02-24T16:34:50.576Z,28.70
2019-02-24T16:38:55.575Z,30.30
2019-02-24T16:43:00.581Z,32.00
2019-02-24T16:47:05.751Z,32.20
2019-02-24T16:51:10.852Z,32.90
2019-02-24T16:55:16.985Z,32.80
2019-02-24T16:59:22.596Z,34.00
2019-02-24T17:03:27.600Z,34.00
2019-02-24T17:07:32.640Z,34.10
2019-02-24T17:11:37.726Z,34.70
2019-02-24T17:15:44.498Z,36.20
2019-02-24T17:19:49.532Z,39.80
2019-02-24T17:23:55.573Z,41.70
2019-02-24T17:28:00.591Z,42.80
2019-02-24T17:32:05.603Z,43.10
2019-02-24T17:36:10.613Z,42.50
2019-02-24T17:40:23.130Z,41.60
2019-02-24T17:44:28.694Z,43.40
2019-02-24T17:48:33.746Z,44.10
2019-02-24T17:52:38.870Z,44.80
2019-02-24T17:56:44.989Z,45.80
2019-02-24T18:00:58.873Z,45.90
2019-02-24T18:05:04.843Z,46.50
2019-02-24T18:09:10.262Z,47.10
2019-02-24T18:13:15.885Z,47.70
2019-02-24T18:17:20.991Z,48.80
2019-02-24T18:21:25.980Z,50.30
2019-02-24T18:25:31.060Z,50.70
2019-02-24T18:29:36.303Z,51.80
2019-02-24T18:33:48.053Z,52.50
2019-02-24T18:37:47.949Z,53.00
2019-02-24T18:41:53.056Z,55.00
2019-02-24T18:45:58.248Z,55.90
2019-02-24T18:50:04.096Z,56.30
2019-02-24T18:54:09.400Z,57.20
2019-02-24T18:58:14.701Z,58.00
2019-02-24T19:02:19.804Z,58.80
2019-02-24T19:06:24.906Z,59.60
2019-02-24T19:10:29.912Z,60.40
2019-02-24T19:14:35.855Z,60.00
2019-02-24T19:18:42.101Z,61.00
2019-02-24T19:22:47.709Z,61.70
2019-02-24T19:26:54.900Z,61.90
2019-02-24T19:31:00.865Z,62.60
2019-02-24T19:35:09.064Z,61.60
2019-02-24T19:39:15.667Z,61.70
2019-02-24T19:43:22.902Z,61.70
2019-02-24T19:47:28.666Z,62.60
2019-02-24T19:51:34.493Z,63.60
2019-02-24T19:55:39.844Z,63.70
2019-02-24T19:59:45.640Z,63.30
2019-02-24T20:03:52.255Z,64.40
2019-02-24T20:07:58.160Z,65.60
2019-02-24T20:12:04.713Z,66.80
2019-02-24T20:16:10.450Z,66.70
2019-02-24T20:20:17.486Z,66.50
2019-02-24T20:24:22.962Z,66.20
2019-02-24T20:28:29.183Z,66.90
2019-02-24T20:32:35.191Z,66.00
2019-02-24T20:36:41.189Z,66.90
2019-02-24T20:40:47.213Z,66.80
2019-02-24T20:44:52.542Z,61.60
2019-02-24T20:48:58.400Z,60.30
2019-02-24T20:53:17.617Z,62.00
2019-02-24T20:57:23.610Z,63.90
2019-02-24T21:01:29.077Z,65.00
2019-02-24T21:05:34.923Z,66.40
2019-02-24T21:09:43.180Z,67.30
2019-02-24T21:13:57.827Z,69.70
2019-02-24T21:18:02.818Z,70.90
2019-02-24T21:22:08.799Z,70.70
2019-02-24T21:26:13.819Z,71.90
2019-02-24T21:30:19.272Z,73.50
2019-02-24T21:34:24.292Z,73.00
2019-02-24T21:38:29.280Z,73.50
2019-02-24T21:42:34.295Z,73.40
2019-02-24T21:46:39.319Z,74.10
2019-02-24T21:50:44.476Z,75.00
2019-02-24T21:54:49.495Z,74.80
2019-02-24T21:58:54.517Z,73.50
2019-02-24T22:02:59.565Z,73.40
2019-02-24T22:07:04.710Z,73.40
2019-02-24T22:11:09.727Z,74.30
2019-02-24T22:15:25.254Z,73.50
2019-02-24T22:19:30.276Z,73.30
2019-02-24T22:23:35.271Z,73.50
2019-02-24T22:27:40.290Z,72.70
2019-02-24T22:31:45.295Z,73.40
2019-02-24T22:35:50.307Z,74.20
2019-02-24T22:39:55.352Z,74.60
2019-02-24T22:44:01.316Z,74.70
2019-02-24T22:48:06.331Z,75.10
2019-02-24T22:52:11.348Z,75.70
2019-02-24T22:56:16.352Z,75.50
2019-02-24T23:00:52.390Z,74.30
2019-02-24T23:04:59.769Z,73.20
2019-02-24T23:09:08.273Z,73.00
2019-02-24T23:13:14.888Z,72.60
2019-02-24T23:17:20.136Z,74.10
2019-02-24T23:21:25.151Z,74.20
2019-02-24T23:25:30.168Z,75.00
2019-02-24T23:29:35.276Z,76.20
2019-02-24T23:33:40.564Z,78.00
2019-02-24T23:37:45.767Z,77.60
2019-02-24T23:41:50.780Z,77.10
2019-02-24T23:45:55.802Z,77.20
2019-02-24T23:50:00.830Z,77.30
2019-02-24T23:54:05.804Z,77.30
2019-02-24T23:58:10.820Z,77.20
